Main page
METAR-TAF:

METAR-TAF

Airports :

Pyongyang Sunan International Airport

Pyongyang, North Korea

latitude: 39-02N, longitude: 125-47E, elevation: 36 m

METAR: missing

Time: 18:54 (09:54 UTC)

Forecast

The report was made 5 hours and 54 minutes ago, at 04:00 UTC
Forecast valid from 19 at 06 UTC to 20 at 06 UTC
Wind 8 kt from the West/Northwest
Visibility: 4000 m
Broken clouds at a height of 3300 ft
mist
Becoming
from 19 at 10 UTC to 19 at 12 UTC
Visibility: 5000 m
mist

TAF: ZKPY 190400Z 1906/2006 29004MPS 4000 BR BKN033 TX02/1906Z TNM10/1922Z BECMG 1910/1912 5000 BR NSC

Weather observations and forecasts of more than 4000 airports (METAR and TAF reports).

The available stations are represented by yellow and red dots on the map.

Hover mouse over dot to see the name of the station.

Then click to see weather observations and forecasts.

To change the map : click on the green buttons with a black cross to zoom in, on the green button with a dash to zoom out, or on the green arrows for adjacent maps.


METAR-TAF: